createdAt,value
2024-04-25T00:00:45.731Z,49.15
2024-04-25T00:03:15.505Z,50.03
2024-04-25T00:05:48.023Z,50.73
2024-04-25T00:08:17.993Z,50.40
2024-04-25T00:10:47.784Z,50.39
2024-04-25T00:13:17.530Z,50.92
2024-04-25T00:15:47.308Z,51.00
2024-04-25T00:18:17.121Z,50.83
2024-04-25T00:20:49.783Z,50.82
2024-04-25T00:23:19.662Z,50.76
2024-04-25T00:25:49.998Z,51.04
2024-04-25T00:28:20.205Z,51.57
2024-04-25T00:30:52.100Z,51.11
2024-04-25T00:33:22.265Z,51.03
2024-04-25T00:35:54.861Z,51.21
2024-04-25T00:38:25.119Z,52.67
2024-04-25T00:40:55.112Z,52.29
2024-04-25T00:43:32.069Z,51.98
2024-04-25T00:46:02.539Z,51.57
2024-04-25T00:48:34.136Z,52.49
2024-04-25T00:51:10.126Z,53.35
2024-04-25T00:53:40.291Z,51.26
2024-04-25T00:56:10.708Z,50.92
2024-04-25T00:58:41.788Z,51.52
2024-04-25T01:01:14.189Z,52.16
2024-04-25T01:03:45.092Z,50.96
2024-04-25T01:06:22.258Z,50.59
2024-04-25T01:08:52.309Z,50.89
2024-04-25T01:11:22.279Z,50.65
2024-04-25T01:13:52.164Z,49.98
2024-04-25T01:16:21.947Z,49.70
2024-04-25T01:18:51.895Z,50.82
2024-04-25T01:21:24.435Z,50.66
2024-04-25T01:23:57.081Z,50.02
2024-04-25T01:26:30.029Z,49.63
2024-04-25T01:29:02.130Z,50.13
2024-04-25T01:31:32.010Z,50.35
2024-04-25T01:34:02.470Z,51.27
2024-04-25T01:36:32.484Z,50.88
2024-04-25T01:39:02.288Z,51.31
2024-04-25T01:41:34.842Z,58.59
2024-04-25T01:44:05.009Z,62.52
2024-04-25T01:46:35.095Z,63.58
2024-04-25T01:49:05.074Z,65.74
2024-04-25T01:51:34.859Z,67.55
2024-04-25T01:54:04.700Z,68.53
2024-04-25T01:56:37.486Z,68.19
2024-04-25T01:59:07.591Z,69.03
2024-04-25T02:01:37.383Z,69.20
2024-04-25T02:04:07.283Z,68.61
2024-04-25T02:06:37.095Z,67.97
2024-04-25T02:09:07.045Z,68.04
2024-04-25T02:11:39.556Z,67.69
2024-04-25T02:14:09.522Z,67.14
2024-04-25T02:16:39.317Z,67.70
2024-04-25T02:19:09.467Z,66.38
2024-04-25T02:21:55.040Z,64.84
2024-04-25T02:24:40.657Z,62.62
2024-04-25T02:27:13.144Z,62.79
2024-04-25T02:29:43.073Z,63.15
2024-04-25T02:32:13.163Z,61.90
2024-04-25T02:34:42.957Z,63.31
2024-04-25T02:37:12.684Z,63.66
2024-04-25T02:39:43.292Z,66.18
2024-04-25T02:42:15.773Z,66.81
2024-04-25T02:44:45.745Z,68.84
2024-04-25T02:47:12.954Z,70.15
2024-04-25T02:49:42.813Z,70.76
2024-04-25T02:52:10.063Z,71.49
2024-04-25T02:54:39.870Z,72.30
2024-04-25T02:57:07.161Z,72.64
2024-04-25T02:59:39.714Z,73.83
2024-04-25T03:02:07.795Z,74.63
2024-04-25T03:04:37.740Z,75.06
2024-04-25T03:07:05.183Z,75.07
2024-04-25T03:09:34.976Z,75.14
2024-04-25T03:12:02.535Z,75.73
2024-04-25T03:14:32.611Z,76.48
2024-04-25T03:17:02.394Z,75.87
2024-04-25T03:19:32.185Z,76.50
2024-04-25T03:21:59.408Z,76.99
2024-04-25T03:24:29.448Z,77.46
2024-04-25T03:26:56.805Z,77.99
2024-04-25T03:29:26.722Z,77.58
2024-04-25T03:31:54.148Z,78.03
2024-04-25T03:34:26.641Z,78.37
2024-04-25T03:36:57.836Z,78.50
2024-04-25T03:39:27.756Z,78.37
2024-04-25T03:41:57.854Z,78.84
2024-04-25T03:44:27.742Z,78.57
2024-04-25T03:46:58.175Z,79.40
2024-04-25T03:49:30.776Z,79.02
2024-04-25T03:52:00.829Z,79.33
2024-04-25T03:54:30.792Z,78.82
2024-04-25T03:57:00.951Z,78.50
2024-04-25T03:59:30.758Z,77.71
2024-04-25T04:02:01.009Z,77.83
2024-04-25T04:04:33.639Z,77.60
2024-04-25T04:07:03.627Z,77.87
2024-04-25T04:09:33.373Z,77.37
2024-04-25T04:12:04.216Z,77.41
2024-04-25T04:14:34.270Z,77.38
2024-04-25T04:17:04.118Z,76.96
2024-04-25T04:19:37.232Z,76.77
2024-04-25T04:22:07.540Z,76.57
2024-04-25T04:24:37.656Z,77.04
2024-04-25T04:27:07.443Z,76.46
2024-04-25T04:29:37.372Z,75.72
2024-04-25T04:32:07.613Z,76.04
2024-04-25T04:34:40.250Z,76.88
2024-04-25T04:37:10.071Z,76.35
2024-04-25T04:39:39.965Z,76.42
2024-04-25T04:42:09.805Z,76.88
2024-04-25T04:44:39.588Z,76.60
2024-04-25T04:47:10.947Z,76.26
2024-04-25T04:49:43.680Z,76.12
2024-04-25T04:52:13.646Z,75.44
2024-04-25T04:54:43.487Z,74.02
2024-04-25T04:57:13.381Z,74.18
2024-04-25T04:59:43.282Z,74.06
2024-04-25T05:02:13.116Z,75.45
2024-04-25T05:04:45.701Z,75.40
2024-04-25T05:07:15.803Z,75.25
2024-04-25T05:09:45.738Z,75.80
2024-04-25T05:12:15.946Z,75.57
2024-04-25T05:14:46.013Z,76.16
2024-04-25T05:17:16.079Z,75.65
2024-04-25T05:19:48.545Z,76.59
2024-04-25T05:22:18.973Z,77.53
2024-04-25T05:24:49.020Z,77.46
2024-04-25T05:27:18.962Z,77.70
2024-04-25T05:29:50.587Z,77.42
2024-04-25T05:32:20.560Z,77.68
2024-04-25T05:34:56.635Z,78.29
2024-04-25T05:37:28.237Z,78.74
2024-04-25T05:39:58.376Z,78.78
2024-04-25T05:42:28.560Z,79.40
2024-04-25T05:44:58.512Z,79.18
2024-04-25T05:47:28.426Z,79.22
2024-04-25T05:50:01.121Z,79.05
2024-04-25T05:52:31.016Z,78.25
2024-04-25T05:55:02.021Z,78.90
2024-04-25T05:57:32.034Z,78.28
2024-04-25T06:00:01.898Z,77.86
2024-04-25T06:02:35.585Z,77.33
2024-04-25T06:05:08.621Z,77.60
2024-04-25T06:07:38.451Z,78.13
2024-04-25T06:10:09.248Z,77.74
2024-04-25T06:12:39.441Z,76.99
2024-04-25T06:15:09.840Z,77.26
2024-04-25T06:17:42.874Z,76.97
2024-04-25T06:20:17.897Z,76.68
2024-04-25T06:22:47.847Z,77.01
2024-04-25T06:25:17.739Z,76.35
2024-04-25T06:27:48.655Z,76.28
2024-04-25T06:30:18.724Z,75.60
2024-04-25T06:32:51.021Z,75.27
2024-04-25T06:35:23.534Z,75.40
2024-04-25T06:37:53.596Z,75.13
2024-04-25T06:40:23.464Z,75.83
2024-04-25T06:42:53.344Z,75.75
2024-04-25T06:45:23.321Z,75.05
2024-04-25T06:47:53.259Z,74.61
2024-04-25T06:50:25.777Z,75.15
2024-04-25T06:52:55.906Z,76.02
2024-04-25T06:55:25.858Z,75.16
2024-04-25T06:57:56.254Z,75.87
2024-04-25T07:00:26.199Z,75.45
2024-04-25T07:02:56.529Z,74.72
2024-04-25T07:05:29.331Z,76.27
2024-04-25T07:07:59.740Z,75.50
2024-04-25T07:10:29.710Z,76.44
2024-04-25T07:12:59.454Z,77.87
2024-04-25T07:15:29.358Z,77.28
2024-04-25T07:18:00.567Z,77.63
2024-04-25T07:20:33.599Z,77.66
2024-04-25T07:23:03.633Z,78.40
2024-04-25T07:25:33.493Z,78.01
2024-04-25T07:28:03.786Z,78.75
2024-04-25T07:30:33.666Z,79.24
2024-04-25T07:33:03.699Z,79.17
2024-04-25T07:35:36.316Z,79.27
2024-04-25T07:38:06.647Z,78.26
2024-04-25T07:40:38.432Z,78.92
2024-04-25T07:43:08.982Z,78.67
2024-04-25T07:45:39.028Z,79.11
2024-04-25T07:48:09.856Z,77.96
2024-04-25T07:50:42.585Z,78.39
2024-04-25T07:53:12.756Z,78.04
2024-04-25T07:55:44.204Z,78.59
2024-04-25T07:58:14.437Z,79.24
2024-04-25T08:00:45.886Z,79.29
2024-04-25T08:03:16.058Z,78.69
2024-04-25T08:05:49.550Z,76.95
2024-04-25T08:08:22.723Z,76.80
2024-04-25T08:10:54.911Z,76.80
2024-04-25T08:13:25.979Z,76.28
2024-04-25T08:15:56.002Z,76.54
2024-04-25T08:18:26.339Z,76.09
2024-04-25T08:21:00.647Z,75.57
2024-04-25T08:23:30.808Z,76.08
2024-04-25T08:26:01.038Z,76.57
2024-04-25T08:28:31.354Z,76.73
2024-04-25T08:31:01.258Z,77.10
2024-04-25T08:33:31.145Z,76.53
2024-04-25T08:36:03.851Z,76.09
2024-04-25T08:38:36.129Z,75.42
2024-04-25T08:41:07.009Z,77.29
2024-04-25T08:43:38.475Z,74.99
2024-04-25T08:46:10.510Z,74.48
2024-04-25T08:48:41.146Z,74.20
2024-04-25T08:51:15.209Z,74.38
2024-04-25T08:53:47.296Z,74.28
2024-04-25T08:56:18.022Z,74.35
2024-04-25T08:58:49.343Z,73.92
2024-04-25T09:01:21.727Z,75.09
2024-04-25T09:03:55.909Z,71.92
2024-04-25T09:06:28.358Z,72.37
2024-04-25T09:08:59.857Z,72.13
2024-04-25T09:11:29.859Z,71.78
2024-04-25T09:14:01.133Z,69.68
2024-04-25T09:16:31.216Z,70.95
2024-04-25T09:19:01.265Z,71.65
2024-04-25T09:21:34.046Z,70.98
2024-04-25T09:24:04.208Z,70.02
2024-04-25T09:26:35.427Z,70.99
2024-04-25T09:29:05.544Z,70.46
2024-04-25T09:31:37.843Z,70.40
2024-04-25T09:34:08.475Z,72.55
2024-04-25T09:36:41.571Z,71.05
2024-04-25T09:39:11.604Z,69.68
2024-04-25T09:41:42.751Z,70.58
2024-04-25T09:44:13.727Z,69.83
2024-04-25T09:46:49.480Z,70.47
2024-04-25T09:49:21.692Z,69.26
2024-04-25T09:52:01.038Z,67.29
2024-04-25T09:54:33.274Z,67.31
2024-04-25T09:57:09.432Z,66.58
2024-04-25T09:59:48.465Z,68.32
2024-04-25T10:02:20.809Z,70.39
2024-04-25T10:04:51.062Z,69.64
2024-04-25T10:07:24.401Z,69.88
2024-04-25T10:09:55.544Z,68.29
2024-04-25T10:12:26.387Z,68.57
2024-04-25T10:15:01.574Z,69.21
2024-04-25T10:17:33.524Z,68.91
2024-04-25T10:20:05.757Z,69.66
2024-04-25T10:22:42.161Z,69.73
2024-04-25T10:25:17.106Z,68.71
2024-04-25T10:27:47.173Z,69.81
2024-04-25T10:30:19.008Z,70.51
2024-04-25T10:32:49.601Z,69.99
2024-04-25T10:35:19.693Z,70.67
2024-04-25T10:37:54.131Z,72.32
2024-04-25T10:40:29.937Z,71.88
2024-04-25T10:43:04.787Z,73.14
2024-04-25T10:45:37.978Z,71.56
2024-04-25T10:48:11.164Z,71.24
2024-04-25T10:50:41.961Z,73.09
2024-04-25T10:53:14.906Z,72.26
2024-04-25T10:55:45.464Z,72.45
2024-04-25T10:58:17.343Z,73.18
2024-04-25T11:00:48.914Z,72.97
2024-04-25T11:03:19.531Z,72.21
2024-04-25T11:05:49.766Z,72.19
2024-04-25T11:08:23.092Z,71.58
2024-04-25T11:10:53.235Z,71.71
2024-04-25T11:13:23.093Z,71.64
2024-04-25T11:16:02.034Z,72.43
2024-04-25T11:18:33.717Z,72.61
2024-04-25T11:21:05.382Z,74.80
2024-04-25T11:23:38.164Z,75.59
2024-04-25T11:26:08.451Z,76.20
2024-04-25T11:28:38.498Z,76.15
2024-04-25T11:31:10.368Z,76.10
2024-04-25T11:33:41.495Z,76.73
2024-04-25T11:36:11.706Z,77.65
2024-04-25T11:38:44.912Z,78.77
2024-04-25T11:41:14.955Z,78.03
2024-04-25T11:43:44.766Z,77.98
2024-04-25T11:46:14.677Z,75.17
2024-04-25T11:48:50.912Z,75.66
2024-04-25T11:51:21.153Z,75.45
2024-04-25T11:53:53.754Z,75.67
2024-04-25T11:56:24.063Z,76.70
2024-04-25T11:58:55.110Z,76.33
2024-04-25T12:01:25.457Z,76.59
2024-04-25T12:03:55.451Z,76.98
2024-04-25T12:06:27.074Z,76.98
2024-04-25T12:09:01.004Z,77.38
2024-04-25T12:11:36.876Z,77.34
2024-04-25T12:14:08.085Z,77.31
2024-04-25T12:16:38.065Z,78.67
2024-04-25T12:19:07.877Z,79.47
2024-04-25T12:21:37.894Z,79.37
2024-04-25T12:24:10.533Z,79.37
2024-04-25T12:26:40.568Z,78.63
2024-04-25T12:29:10.412Z,79.46
2024-04-25T12:31:40.440Z,80.36
2024-04-25T12:34:13.725Z,79.57
2024-04-25T12:36:44.896Z,79.32
2024-04-25T12:39:18.694Z,79.75
2024-04-25T12:41:52.635Z,78.29
2024-04-25T12:44:22.608Z,79.19
2024-04-25T12:46:52.632Z,79.97
2024-04-25T12:49:34.431Z,79.85
2024-04-25T12:52:04.646Z,79.13
2024-04-25T12:54:37.808Z,78.67
2024-04-25T12:57:08.338Z,78.25
2024-04-25T12:59:38.345Z,77.98
2024-04-25T13:02:08.178Z,79.10
2024-04-25T13:04:35.661Z,78.99
2024-04-25T13:07:05.445Z,78.85
2024-04-25T13:09:38.089Z,77.89
2024-04-25T13:12:08.432Z,78.64
2024-04-25T13:14:38.415Z,79.33
2024-04-25T13:17:08.368Z,78.85
2024-04-25T13:19:38.157Z,78.35
2024-04-25T13:22:09.207Z,78.44
2024-04-25T13:24:42.661Z,78.48
2024-04-25T13:27:12.702Z,78.91
2024-04-25T13:29:44.802Z,79.60
2024-04-25T13:32:14.799Z,79.05
2024-04-25T13:34:44.861Z,79.85
2024-04-25T13:37:14.733Z,77.94
2024-04-25T13:39:47.704Z,78.49
2024-04-25T13:42:17.607Z,78.84
2024-04-25T13:44:47.502Z,76.15
2024-04-25T13:47:17.427Z,75.22
2024-04-25T13:49:47.660Z,75.25
2024-04-25T13:52:17.450Z,75.75
2024-04-25T13:54:50.055Z,75.89
2024-04-25T13:57:19.952Z,76.12
2024-04-25T13:59:49.764Z,76.39
2024-04-25T14:02:19.785Z,76.12
2024-04-25T14:04:49.573Z,75.52
2024-04-25T14:07:19.551Z,75.21
2024-04-25T14:09:52.001Z,74.57
2024-04-25T14:12:22.935Z,74.63
2024-04-25T14:14:53.745Z,74.99
2024-04-25T14:17:23.654Z,75.17
2024-04-25T14:19:53.935Z,75.89
2024-04-25T14:22:23.869Z,75.66
2024-04-25T14:25:01.754Z,74.33
2024-04-25T14:27:47.641Z,74.57
2024-04-25T14:30:17.580Z,75.26
2024-04-25T14:32:47.493Z,74.63
2024-04-25T14:35:17.430Z,74.74
2024-04-25T14:37:47.243Z,73.83
2024-04-25T14:40:26.081Z,72.90
2024-04-25T14:42:55.987Z,73.77
2024-04-25T14:45:26.251Z,73.03
2024-04-25T14:47:56.351Z,70.78
2024-04-25T14:50:26.675Z,71.83
2024-04-25T14:52:56.474Z,71.96
2024-04-25T14:55:29.326Z,71.51
2024-04-25T14:57:59.150Z,73.04
2024-04-25T15:00:29.123Z,73.80
2024-04-25T15:02:58.994Z,74.03
2024-04-25T15:05:28.964Z,73.84
2024-04-25T15:07:58.726Z,74.33
2024-04-25T15:10:32.941Z,74.55
2024-04-25T15:13:02.959Z,73.54
2024-04-25T15:15:34.344Z,74.66
2024-04-25T15:18:04.733Z,75.65
2024-04-25T15:20:34.762Z,75.06
2024-04-25T15:23:05.398Z,76.14
2024-04-25T15:25:37.934Z,77.12
2024-04-25T15:28:09.412Z,78.20
2024-04-25T15:30:40.340Z,77.67
2024-04-25T15:33:10.626Z,77.50
2024-04-25T15:35:40.596Z,78.16
2024-04-25T15:38:10.440Z,78.56
2024-04-25T15:40:42.927Z,78.51
2024-04-25T15:43:13.019Z,78.44
2024-04-25T15:45:42.901Z,77.61
2024-04-25T15:48:13.542Z,77.31
2024-04-25T15:50:43.378Z,76.93
2024-04-25T15:53:14.871Z,77.65
2024-04-25T15:55:47.444Z,78.09
2024-04-25T15:58:20.803Z,77.81
2024-04-25T16:00:50.836Z,77.97
2024-04-25T16:03:21.320Z,78.00
2024-04-25T16:05:51.634Z,78.45
2024-04-25T16:08:21.569Z,78.32
2024-04-25T16:10:54.117Z,79.85
2024-04-25T16:13:23.991Z,79.10
2024-04-25T16:15:53.740Z,79.47
2024-04-25T16:18:23.552Z,78.70
2024-04-25T16:20:54.103Z,79.26
2024-04-25T16:23:24.033Z,79.19
2024-04-25T16:25:56.696Z,79.00
2024-04-25T16:28:26.475Z,79.06
2024-04-25T16:30:57.018Z,77.85
2024-04-25T16:33:27.282Z,77.81
2024-04-25T16:35:59.155Z,77.20
2024-04-25T16:38:29.125Z,77.16
2024-04-25T16:41:01.847Z,76.70
2024-04-25T16:43:34.773Z,74.91
2024-04-25T16:46:04.784Z,75.33
2024-04-25T16:48:34.992Z,75.34
2024-04-25T16:51:05.420Z,74.57
2024-04-25T16:53:35.291Z,74.72
2024-04-25T16:56:08.793Z,75.10
2024-04-25T16:58:38.673Z,75.27
2024-04-25T17:01:08.709Z,75.34
2024-04-25T17:03:39.743Z,75.18
2024-04-25T17:06:12.947Z,75.76
2024-04-25T17:08:42.782Z,75.65
2024-04-25T17:11:28.149Z,76.53
2024-04-25T17:14:00.797Z,76.46
2024-04-25T17:16:30.866Z,76.46
2024-04-25T17:19:01.368Z,77.02
2024-04-25T17:21:33.789Z,77.33
2024-04-25T17:24:03.586Z,77.12
2024-04-25T17:26:36.106Z,77.33
2024-04-25T17:29:07.740Z,77.59
2024-04-25T17:31:38.362Z,77.51
2024-04-25T17:34:08.321Z,76.87
2024-04-25T17:36:38.224Z,76.81
2024-04-25T17:39:08.082Z,76.86
2024-04-25T17:41:40.571Z,77.06
2024-04-25T17:44:10.627Z,76.24
2024-04-25T17:46:40.422Z,76.49
2024-04-25T17:49:11.394Z,76.44
2024-04-25T17:51:43.202Z,76.95
2024-04-25T17:54:13.202Z,77.24
2024-04-25T17:56:46.282Z,77.42
2024-04-25T17:59:16.243Z,77.41
2024-04-25T18:01:48.007Z,77.38
2024-04-25T18:04:18.104Z,77.12
2024-04-25T18:06:48.016Z,77.57
2024-04-25T18:09:17.957Z,77.71
2024-04-25T18:11:50.393Z,77.88
2024-04-25T18:14:20.502Z,77.94
2024-04-25T18:16:50.343Z,78.09
2024-04-25T18:19:20.132Z,77.84
2024-04-25T18:21:51.655Z,77.79
2024-04-25T18:24:23.277Z,78.13
2024-04-25T18:26:55.832Z,78.33
2024-04-25T18:29:26.839Z,78.24
2024-04-25T18:31:56.550Z,78.49
2024-04-25T18:34:26.311Z,77.82
2024-04-25T18:36:56.132Z,77.95
2024-04-25T18:39:26.036Z,77.31
2024-04-25T18:41:58.607Z,77.18
2024-04-25T18:44:28.485Z,77.36
2024-04-25T18:46:58.408Z,77.43
2024-04-25T18:49:28.292Z,76.92
2024-04-25T18:52:00.313Z,77.14
2024-04-25T18:54:30.596Z,76.70
2024-04-25T18:57:03.014Z,76.05
2024-04-25T18:59:32.956Z,75.27
2024-04-25T19:02:03.075Z,76.00
2024-04-25T19:04:32.885Z,75.79
2024-04-25T19:07:04.320Z,75.49
2024-04-25T19:09:34.668Z,75.82
2024-04-25T19:12:07.633Z,75.19
2024-04-25T19:14:37.723Z,74.28
2024-04-25T19:17:09.859Z,75.22
2024-04-25T19:19:39.827Z,74.94
2024-04-25T19:22:09.938Z,74.33
2024-04-25T19:24:39.770Z,74.61
2024-04-25T19:27:12.440Z,74.12
2024-04-25T19:29:42.329Z,73.50
2024-04-25T19:32:12.090Z,73.67
2024-04-25T19:34:41.965Z,73.55
2024-04-25T19:37:11.777Z,73.14
2024-04-25T19:39:41.554Z,73.91
2024-04-25T19:42:16.403Z,74.18
2024-04-25T19:44:46.303Z,74.11
2024-04-25T19:47:13.462Z,74.29
2024-04-25T19:49:43.646Z,74.33
2024-04-25T19:52:14.002Z,74.11
2024-04-25T19:54:43.843Z,74.06
2024-04-25T19:57:18.061Z,74.22
2024-04-25T19:59:47.989Z,74.19
2024-04-25T20:02:20.527Z,73.77
2024-04-25T20:04:50.569Z,74.37
2024-04-25T20:07:20.615Z,74.63
2024-04-25T20:09:50.327Z,74.88
2024-04-25T20:12:22.867Z,75.50
2024-04-25T20:14:53.761Z,75.37
2024-04-25T20:17:41.254Z,74.71
2024-04-25T20:20:27.397Z,75.19
2024-04-25T20:22:57.314Z,75.48
2024-04-25T20:25:27.051Z,74.86
2024-04-25T20:27:59.564Z,75.29
2024-04-25T20:30:29.578Z,74.80
2024-04-25T20:32:59.439Z,74.49
2024-04-25T20:35:29.445Z,74.90
2024-04-25T20:37:59.293Z,75.51
2024-04-25T20:40:29.068Z,75.38
2024-04-25T20:43:01.555Z,75.20
2024-04-25T20:45:31.676Z,75.28
2024-04-25T20:48:01.697Z,75.16
2024-04-25T20:50:31.617Z,75.14
2024-04-25T20:53:01.460Z,75.15
2024-04-25T20:55:31.224Z,74.81
2024-04-25T20:58:03.667Z,74.91
2024-04-25T21:00:33.526Z,75.43
2024-04-25T21:03:03.433Z,75.06
2024-04-25T21:05:33.341Z,75.77
2024-04-25T21:08:03.201Z,76.05
2024-04-25T21:10:33.014Z,76.41
2024-04-25T21:13:05.604Z,76.67
2024-04-25T21:15:35.565Z,76.61
2024-04-25T21:18:05.468Z,76.83
2024-04-25T21:20:35.304Z,76.67
2024-04-25T21:23:05.217Z,76.58
2024-04-25T21:25:44.817Z,76.49
2024-04-25T21:28:20.801Z,76.31
2024-04-25T21:30:50.978Z,76.03
2024-04-25T21:33:21.703Z,75.69
2024-04-25T21:35:51.716Z,74.74
2024-04-25T21:38:21.979Z,74.51
2024-04-25T21:40:51.893Z,74.69
2024-04-25T21:43:26.768Z,73.79
2024-04-25T21:45:56.922Z,73.90
2024-04-25T21:48:26.886Z,73.28
2024-04-25T21:50:56.789Z,72.65
2024-04-25T21:53:26.634Z,72.90
2024-04-25T21:55:56.474Z,73.18
2024-04-25T21:58:28.926Z,73.30
2024-04-25T22:00:58.801Z,73.35
2024-04-25T22:03:28.901Z,73.76
2024-04-25T22:05:58.697Z,73.91
2024-04-25T22:08:28.704Z,74.01
2024-04-25T22:10:58.516Z,73.36
2024-04-25T22:13:34.116Z,73.69
2024-04-25T22:16:04.100Z,73.72
2024-04-25T22:18:35.120Z,73.53
2024-04-25T22:21:05.517Z,73.03
2024-04-25T22:23:35.419Z,74.09
2024-04-25T22:26:05.257Z,74.29
2024-04-25T22:28:37.654Z,74.49
2024-04-25T22:31:08.005Z,74.57
2024-04-25T22:33:37.971Z,75.03
2024-04-25T22:36:10.167Z,75.25
2024-04-25T22:38:40.144Z,75.37
2024-04-25T22:41:10.027Z,75.38
2024-04-25T22:43:42.524Z,75.59
2024-04-25T22:46:13.527Z,75.73
2024-04-25T22:48:43.519Z,75.96
2024-04-25T22:51:13.623Z,76.11
2024-04-25T22:53:43.681Z,76.33
2024-04-25T22:56:13.633Z,76.51
2024-04-25T22:58:46.153Z,76.77
2024-04-25T23:01:16.080Z,76.89
2024-04-25T23:03:45.903Z,77.10
2024-04-25T23:06:15.993Z,77.18
2024-04-25T23:08:45.891Z,77.13
2024-04-25T23:11:15.824Z,77.05
2024-04-25T23:13:48.372Z,77.17
2024-04-25T23:16:19.040Z,77.07
2024-04-25T23:18:49.060Z,77.02
2024-04-25T23:21:18.922Z,76.91
2024-04-25T23:23:48.742Z,76.57
2024-04-25T23:26:15.963Z,76.45
2024-04-25T23:28:48.424Z,76.30
2024-04-25T23:31:21.990Z,76.47
2024-04-25T23:33:51.978Z,76.09
2024-04-25T23:36:23.772Z,76.15
2024-04-25T23:38:53.719Z,76.11
2024-04-25T23:41:23.769Z,76.25
2024-04-25T23:43:56.337Z,76.30
2024-04-25T23:46:26.442Z,76.39
2024-04-25T23:48:56.417Z,76.39
2024-04-25T23:51:26.688Z,76.08
2024-04-25T23:53:56.652Z,75.72
2024-04-25T23:56:26.497Z,76.16
2024-04-25T23:58:59.193Z,76.77
